createdAt,value
2023-05-10T00:03:13.555Z,6.70
2023-05-10T00:15:13.887Z,6.51
2023-05-10T00:27:14.343Z,6.58
2023-05-10T00:39:14.754Z,6.08
2023-05-10T00:51:15.248Z,6.33
2023-05-10T01:03:15.745Z,5.64
2023-05-10T01:15:16.118Z,5.28
2023-05-10T01:27:16.587Z,5.58
2023-05-10T01:39:17.086Z,5.21
2023-05-10T01:51:17.498Z,5.30
2023-05-10T02:03:18.005Z,4.90
2023-05-10T02:15:18.371Z,4.41
2023-05-10T02:27:18.856Z,4.95
2023-05-10T02:39:19.336Z,4.20
2023-05-10T02:51:19.763Z,4.21
2023-05-10T03:03:20.182Z,4.49
2023-05-10T03:15:20.644Z,4.40
2023-05-10T03:27:21.099Z,4.14
2023-05-10T03:39:21.566Z,3.94
2023-05-10T03:51:22.018Z,3.40
2023-05-10T04:03:22.644Z,3.77
2023-05-10T04:15:22.960Z,3.52
2023-05-10T04:27:23.352Z,3.42
2023-05-10T04:39:23.811Z,3.93
2023-05-10T04:51:24.280Z,4.18
2023-05-10T05:03:24.804Z,4.45
2023-05-10T05:15:25.183Z,5.44
2023-05-10T05:27:25.639Z,6.89
2023-05-10T05:39:26.075Z,8.05
2023-05-10T05:51:26.541Z,9.51
2023-05-10T06:03:27.095Z,10.23
2023-05-10T06:15:27.425Z,12.09
2023-05-10T06:27:27.908Z,13.61
2023-05-10T06:39:28.375Z,15.21
2023-05-10T06:51:28.798Z,15.20
2023-05-10T07:03:29.387Z,16.42
2023-05-10T07:15:29.730Z,16.67
2023-05-10T07:27:30.175Z,17.40
2023-05-10T07:39:30.630Z,17.01
2023-05-10T07:51:31.072Z,18.36
2023-05-10T08:03:31.543Z,17.23
2023-05-10T08:15:31.985Z,16.90
2023-05-10T08:27:32.419Z,18.82
2023-05-10T08:39:32.877Z,18.49
2023-05-10T08:51:33.337Z,18.63
2023-05-10T09:03:33.814Z,18.58
2023-05-10T09:15:34.219Z,19.54
2023-05-10T09:27:34.713Z,18.44
2023-05-10T09:39:35.140Z,20.46
2023-05-10T09:51:36.775Z,19.86
2023-05-10T10:03:36.080Z,19.96
2023-05-10T10:15:36.683Z,18.96
2023-05-10T10:27:36.996Z,17.04
2023-05-10T10:39:37.624Z,19.30
2023-05-10T10:51:37.885Z,19.58
2023-05-10T11:03:38.328Z,21.38
2023-05-10T11:15:38.773Z,21.19
2023-05-10T11:27:39.292Z,19.91
2023-05-10T11:39:39.705Z,21.48
2023-05-10T11:51:40.156Z,19.32
2023-05-10T12:03:40.792Z,19.63
2023-05-10T12:15:41.117Z,21.15
2023-05-10T12:27:41.504Z,19.72
2023-05-10T12:39:42.028Z,19.58
2023-05-10T12:51:42.442Z,20.19
2023-05-10T13:03:42.909Z,18.79
2023-05-10T13:15:43.360Z,18.18
2023-05-10T13:27:43.820Z,17.93
2023-05-10T13:39:44.251Z,18.16
2023-05-10T14:03:45.293Z,18.38
2023-05-10T14:15:45.618Z,19.66
2023-05-10T14:27:46.080Z,21.54
2023-05-10T14:39:46.540Z,19.77
2023-05-10T14:51:46.959Z,20.32
2023-05-10T15:03:47.483Z,20.33
2023-05-10T15:15:47.879Z,18.45
2023-05-10T15:39:48.803Z,17.97
2023-05-10T15:51:49.253Z,17.26
2023-05-10T16:03:49.735Z,16.90
2023-05-10T16:15:50.191Z,17.16
2023-05-10T16:27:50.609Z,16.60
2023-05-10T16:39:51.082Z,16.59
2023-05-10T16:51:51.537Z,16.67
2023-05-10T17:03:52.075Z,16.49
2023-05-10T17:15:52.486Z,16.27
2023-05-10T17:27:52.911Z,16.31
2023-05-10T17:39:53.337Z,16.12
2023-05-10T17:51:53.856Z,16.02
2023-05-10T18:03:54.250Z,15.70
2023-05-10T18:15:54.691Z,15.52
2023-05-10T18:27:55.170Z,15.07
2023-05-10T18:39:55.623Z,14.82
2023-05-10T18:51:56.094Z,14.68
2023-05-10T19:03:56.895Z,14.59
2023-05-10T19:15:58.912Z,14.19
2023-05-10T19:27:57.965Z,13.84
2023-05-10T19:39:57.900Z,13.81
2023-05-10T19:51:58.326Z,13.46
2023-05-10T20:03:58.830Z,13.31
2023-05-10T20:15:59.288Z,12.57
2023-05-10T20:27:59.710Z,12.83
2023-05-10T20:40:00.211Z,13.09
2023-05-10T20:52:00.619Z,12.93
2023-05-10T21:04:01.071Z,12.66
2023-05-10T21:16:01.557Z,11.93
2023-05-10T21:28:01.971Z,12.11
2023-05-10T21:40:02.427Z,12.47
2023-05-10T21:52:02.906Z,12.02
2023-05-10T22:04:03.338Z,11.87
2023-05-10T22:16:03.797Z,11.86
2023-05-10T22:28:04.262Z,11.65
2023-05-10T22:40:04.785Z,11.43
2023-05-10T22:52:05.183Z,11.23
2023-05-10T23:04:05.630Z,11.44
2023-05-10T23:16:06.063Z,11.46
2023-05-10T23:28:06.500Z,11.15
2023-05-10T23:40:07.008Z,11.23
2023-05-10T23:52:07.430Z,10.93
